createdAt,value
2022-10-24T00:00:43.810Z,99956.88
2022-10-24T00:03:11.276Z,99963.72
2022-10-24T00:05:42.051Z,99945.38
2022-10-24T00:08:09.090Z,99948.09
2022-10-24T00:10:36.936Z,99951.63
2022-10-24T00:13:04.016Z,99945.38
2022-10-24T00:15:30.746Z,99932.84
2022-10-24T00:17:57.156Z,99935.19
2022-10-24T00:20:23.490Z,99917.47
2022-10-24T00:22:49.926Z,99927.09
2022-10-24T00:25:16.468Z,99926.69
2022-10-24T00:27:42.819Z,99919.22
2022-10-24T00:30:09.638Z,99921.75
2022-10-24T00:32:36.051Z,99923.03
2022-10-24T00:35:03.110Z,99918.28
2022-10-24T00:37:29.474Z,99921.19
2022-10-24T00:39:55.834Z,99912.25
2022-10-24T00:42:22.759Z,99908.91
2022-10-24T00:44:52.971Z,99909.75
2022-10-24T00:47:22.157Z,99909.75
2022-10-24T00:50:04.729Z,99914.34
2022-10-24T00:52:37.019Z,99911.63
2022-10-24T00:55:05.606Z,99911.63
2022-10-24T00:57:45.389Z,99908.09
2022-10-24T01:00:16.751Z,99899.13
2022-10-24T01:02:43.805Z,99890.19
2022-10-24T01:05:11.438Z,99891.00
2022-10-24T01:07:56.484Z,99891.63
2022-10-24T01:10:56.164Z,99881.38
2022-10-24T01:13:36.014Z,99882.44
2022-10-24T01:16:20.747Z,99876.19
2022-10-24T01:21:35.311Z,99883.09
2022-10-24T01:24:28.661Z,99883.75
2022-10-24T01:27:21.762Z,99881.47
2022-10-24T01:29:50.502Z,99879.44
2022-10-24T01:32:30.811Z,99875.66
2022-10-24T01:35:03.453Z,99872.56
2022-10-24T01:37:37.580Z,99869.47
2022-10-24T01:40:13.082Z,99860.13
2022-10-24T01:42:42.472Z,99860.56
2022-10-24T01:45:13.677Z,99846.84
2022-10-24T01:47:46.354Z,99852.47
2022-10-24T01:50:15.419Z,99855.84
2022-10-24T01:52:44.824Z,99847.53
2022-10-24T01:55:12.179Z,99842.56
2022-10-24T01:57:39.683Z,99833.19
2022-10-24T02:00:08.309Z,99839.66
2022-10-24T02:02:39.660Z,99837.38
2022-10-24T02:05:18.899Z,99833.22
2022-10-24T02:07:50.980Z,99834.28
2022-10-24T02:10:23.438Z,99836.38
2022-10-24T02:12:54.199Z,99825.78
2022-10-24T02:15:33.650Z,99809.75
2022-10-24T02:18:01.270Z,99816.41
2022-10-24T02:20:43.591Z,99810.16
2022-10-24T02:23:20.062Z,99818.50
2022-10-24T02:25:52.036Z,99816.84
2022-10-24T02:28:22.964Z,99804.38
2022-10-24T02:30:56.232Z,99811.88
2022-10-24T02:33:23.475Z,99803.13
2022-10-24T02:35:50.329Z,99803.34
2022-10-24T02:38:30.416Z,99796.28
2022-10-24T02:41:01.230Z,99788.38
2022-10-24T02:43:28.975Z,99794.00
2022-10-24T02:45:57.887Z,99795.88
2022-10-24T02:48:30.861Z,99794.00
2022-10-24T02:50:58.416Z,99786.09
2022-10-24T02:53:26.315Z,99779.03
2022-10-24T02:55:53.014Z,99778.22
2022-10-24T02:58:19.659Z,99782.78
2022-10-24T03:00:46.234Z,99784.44
2022-10-24T03:03:13.030Z,99782.78
2022-10-24T03:05:39.398Z,99779.22
2022-10-24T03:08:05.940Z,99776.53
2022-10-24T03:10:32.537Z,99773.00
2022-10-24T03:12:58.870Z,99786.53
2022-10-24T03:15:25.203Z,99782.19
2022-10-24T03:17:51.669Z,99785.72
2022-10-24T03:20:18.085Z,99783.00
2022-10-24T03:22:44.497Z,99787.59
2022-10-24T03:25:11.750Z,99784.88
2022-10-24T03:27:38.391Z,99775.09
2022-10-24T03:30:05.434Z,99785.91
2022-10-24T03:32:34.164Z,99786.97
2022-10-24T03:35:01.215Z,99786.97
2022-10-24T03:37:27.933Z,99785.31
2022-10-24T03:39:54.474Z,99784.25
2022-10-24T03:42:20.988Z,99781.56
2022-10-24T03:44:47.529Z,99781.56
2022-10-24T03:47:13.970Z,99777.19
2022-10-24T03:49:40.312Z,99778.03
2022-10-24T03:52:07.027Z,99788.03
2022-10-24T03:54:34.530Z,99774.50
2022-10-24T03:57:01.107Z,99764.69
2022-10-24T03:59:27.571Z,99772.81
2022-10-24T04:01:54.153Z,99780.94
2022-10-24T04:04:20.632Z,99785.50
2022-10-24T04:06:47.092Z,99781.16
2022-10-24T04:09:13.506Z,99776.56
2022-10-24T04:11:39.917Z,99779.47
2022-10-24T04:14:06.452Z,99782.44
2022-10-24T04:16:35.035Z,99779.09
2022-10-24T04:19:02.042Z,99789.91
2022-10-24T04:21:28.446Z,99788.28
2022-10-24T04:23:54.949Z,99790.34
2022-10-24T04:26:21.382Z,99795.75
2022-10-24T04:28:48.235Z,99799.50
2022-10-24T04:31:17.057Z,99804.31
2022-10-24T04:33:46.339Z,99807.00
2022-10-24T04:36:12.847Z,99803.69
2022-10-24T04:38:39.314Z,99797.44
2022-10-24T04:41:07.397Z,99802.22
2022-10-24T04:43:36.270Z,99797.84
2022-10-24T04:46:02.785Z,99803.25
2022-10-24T04:48:29.525Z,99802.44
2022-10-24T04:50:55.922Z,99800.78
2022-10-24T04:53:22.341Z,99797.25
2022-10-24T04:55:48.734Z,99793.69
2022-10-24T04:58:15.157Z,99793.69
2022-10-24T05:00:46.432Z,99797.47
2022-10-24T05:03:13.509Z,99796.41
2022-10-24T05:05:39.877Z,99798.09
2022-10-24T05:08:06.262Z,99794.56
2022-10-24T05:10:32.653Z,99801.59
2022-10-24T05:12:59.195Z,99785.38
2022-10-24T05:15:25.587Z,99797.03
2022-10-24T05:17:52.067Z,99803.25
2022-10-24T05:20:18.587Z,99798.47
2022-10-24T05:22:45.150Z,99800.34
2022-10-24T05:25:11.780Z,99795.56
2022-10-24T05:27:38.190Z,99802.63
2022-10-24T05:30:05.538Z,99801.59
2022-10-24T05:32:33.739Z,99797.84
2022-10-24T05:35:02.395Z,99795.13
2022-10-24T05:39:58.094Z,99799.28
2022-10-24T05:42:24.497Z,99795.75
2022-10-24T05:44:51.009Z,99797.41
2022-10-24T05:47:17.533Z,99813.63
2022-10-24T05:49:43.975Z,99809.91
2022-10-24T05:52:10.334Z,99807.19
2022-10-24T05:54:48.533Z,99814.25
2022-10-24T05:57:23.255Z,99796.78
2022-10-24T05:59:49.675Z,99807.34
2022-10-24T06:02:20.813Z,99806.97
2022-10-24T06:04:48.275Z,99808.59
2022-10-24T06:07:14.630Z,99807.34
2022-10-24T06:09:41.679Z,99817.72
2022-10-24T06:12:10.065Z,99814.16
2022-10-24T06:14:38.194Z,99816.03
2022-10-24T06:17:11.982Z,99821.19
2022-10-24T06:19:39.105Z,99832.81
2022-10-24T06:22:06.522Z,99826.31
2022-10-24T06:24:37.510Z,99824.19
2022-10-24T06:27:04.910Z,99829.97
2022-10-24T06:29:31.372Z,99829.13
2022-10-24T06:31:57.880Z,99840.13
2022-10-24T06:34:24.407Z,99837.00
2022-10-24T06:36:50.952Z,99825.47
2022-10-24T06:39:17.611Z,99830.84
2022-10-24T06:41:44.019Z,99835.66
2022-10-24T06:44:11.204Z,99841.44
2022-10-24T06:46:38.122Z,99838.47
2022-10-24T06:49:05.061Z,99845.94
2022-10-24T06:51:31.802Z,99844.22
2022-10-24T06:53:58.973Z,99844.19
2022-10-24T06:56:25.363Z,99843.50
2022-10-24T06:58:51.696Z,99851.59
2022-10-24T07:01:21.875Z,99854.47
2022-10-24T07:03:49.173Z,99860.06
2022-10-24T07:06:18.480Z,99852.31
2022-10-24T07:08:45.629Z,99858.94
2022-10-24T07:11:11.965Z,99858.50
2022-10-24T07:13:38.909Z,99863.47
2022-10-24T07:16:06.644Z,99863.03
2022-10-24T07:18:33.059Z,99867.78
2022-10-24T07:21:08.386Z,99867.94
2022-10-24T07:23:35.628Z,99874.56
2022-10-24T07:26:10.476Z,99873.91
2022-10-24T07:28:38.002Z,99880.53
2022-10-24T07:31:05.292Z,99873.59
2022-10-24T07:33:32.721Z,99869.19
2022-10-24T07:35:59.087Z,99870.63
2022-10-24T07:38:25.978Z,99874.56
2022-10-24T07:40:52.434Z,99867.59
2022-10-24T07:43:18.792Z,99874.25
2022-10-24T07:45:49.090Z,99867.34
2022-10-24T07:48:19.526Z,99864.16
2022-10-24T07:50:47.514Z,99869.75
2022-10-24T07:53:14.563Z,99863.59
2022-10-24T07:55:43.134Z,99856.88
2022-10-24T07:58:11.020Z,99870.03
2022-10-24T08:00:40.119Z,99866.88
2022-10-24T08:03:10.551Z,99864.75
2022-10-24T08:05:39.612Z,99859.91
2022-10-24T08:08:35.734Z,99858.88
2022-10-24T08:10:52.490Z,99870.09
2022-10-24T08:13:18.815Z,99866.09
2022-10-24T08:15:45.131Z,99862.91
2022-10-24T08:18:11.473Z,99854.28
2022-10-24T08:20:37.886Z,99856.56
2022-10-24T08:23:04.247Z,99858.59
2022-10-24T08:25:30.589Z,99860.63
2022-10-24T08:27:56.935Z,99859.69
2022-10-24T08:30:24.531Z,99857.94
2022-10-24T08:32:50.969Z,99855.13
2022-10-24T08:35:19.826Z,99860.25
2022-10-24T08:37:46.166Z,99863.13
2022-10-24T08:40:17.897Z,99862.78
2022-10-24T08:42:45.585Z,99869.41
2022-10-24T08:45:44.468Z,99877.22
2022-10-24T08:48:16.629Z,99873.56
2022-10-24T08:50:49.235Z,99870.75
2022-10-24T08:53:23.611Z,99867.91
2022-10-24T08:55:55.064Z,99865.09
2022-10-24T08:58:27.694Z,99870.41
2022-10-24T09:00:59.576Z,99876.78
2022-10-24T09:03:54.887Z,99875.63
2022-10-24T09:06:27.658Z,99879.06
2022-10-24T09:09:00.049Z,99875.63
2022-10-24T09:11:36.756Z,99874.09
2022-10-24T09:14:12.033Z,99881.81
2022-10-24T09:16:42.186Z,99894.09
2022-10-24T09:19:15.270Z,99893.41
2022-10-24T09:21:43.230Z,99884.19
2022-10-24T09:24:52.822Z,99892.47
2022-10-24T09:27:24.010Z,99891.72
2022-10-24T09:29:51.780Z,99897.53
2022-10-24T09:32:21.383Z,99895.16
2022-10-24T09:34:49.476Z,99881.66
2022-10-24T09:37:40.323Z,99896.53
2022-10-24T09:40:18.839Z,99897.84
2022-10-24T09:42:56.490Z,99907.53
2022-10-24T09:45:39.448Z,99900.78
2022-10-24T09:48:30.136Z,99903.25
2022-10-24T09:50:58.123Z,99891.53
2022-10-24T09:53:34.356Z,99910.59
2022-10-24T09:56:11.610Z,99904.34
2022-10-24T09:58:38.942Z,99910.88
2022-10-24T10:01:18.462Z,99916.31
2022-10-24T10:04:06.123Z,99925.91
2022-10-24T10:06:35.109Z,99923.72
2022-10-24T10:09:01.603Z,99908.56
2022-10-24T10:11:35.086Z,99916.84
2022-10-24T10:14:16.187Z,99921.81
2022-10-24T10:16:42.527Z,99916.13
2022-10-24T10:19:20.006Z,99917.56
2022-10-24T10:22:01.978Z,99929.28
2022-10-24T10:24:40.488Z,99929.28
2022-10-24T10:27:30.200Z,99924.66
2022-10-24T10:30:11.824Z,99920.28
2022-10-24T10:32:48.383Z,99923.56
2022-10-24T10:35:20.958Z,99928.78
2022-10-24T10:38:07.095Z,99920.75
2022-10-24T10:41:05.880Z,99926.03
2022-10-24T10:43:42.983Z,99915.25
2022-10-24T10:46:15.287Z,99925.69
2022-10-24T10:49:19.148Z,99926.09
2022-10-24T10:51:57.134Z,99925.94
2022-10-24T10:54:46.787Z,99919.03
2022-10-24T10:57:29.494Z,99917.81
2022-10-24T11:00:12.766Z,99921.47
2022-10-24T11:03:06.780Z,99925.38
2022-10-24T11:05:47.955Z,99935.78
2022-10-24T11:08:19.164Z,99933.59
2022-10-24T11:10:53.917Z,99930.66
2022-10-24T11:13:52.809Z,99935.59
2022-10-24T11:16:28.853Z,99938.91
2022-10-24T11:19:02.002Z,99940.31
2022-10-24T11:21:32.886Z,99945.56
2022-10-24T11:24:17.216Z,99945.28
2022-10-24T11:26:51.155Z,99936.59
2022-10-24T11:29:17.498Z,99952.97
2022-10-24T11:31:49.482Z,99952.16
2022-10-24T11:34:23.951Z,99962.47
2022-10-24T11:36:56.014Z,99958.34
2022-10-24T11:39:28.485Z,99950.16
2022-10-24T11:42:05.691Z,99957.78
2022-10-24T11:45:00.122Z,99958.25
2022-10-24T11:47:26.403Z,99965.28
2022-10-24T11:50:06.961Z,99962.56
2022-10-24T11:52:40.097Z,99958.16
2022-10-24T11:55:15.701Z,99957.91
2022-10-24T11:57:45.676Z,99958.25
2022-10-24T12:00:29.622Z,99955.88
2022-10-24T12:03:31.554Z,99951.81
2022-10-24T12:06:16.021Z,99967.19
2022-10-24T12:08:53.360Z,99967.31
2022-10-24T12:11:34.008Z,99955.69
2022-10-24T12:14:21.708Z,99953.03
2022-10-24T12:17:15.803Z,99952.75
2022-10-24T12:19:44.209Z,99955.50
2022-10-24T12:22:23.569Z,99965.34
2022-10-24T12:25:03.058Z,99963.94
2022-10-24T12:27:35.710Z,99975.38
2022-10-24T12:30:21.775Z,99967.66
2022-10-24T12:32:51.770Z,99966.22
2022-10-24T12:35:31.347Z,99960.78
2022-10-24T12:37:58.543Z,99963.78
2022-10-24T12:40:55.714Z,99958.06
2022-10-24T12:43:36.005Z,99967.09
2022-10-24T12:46:25.145Z,99959.97
2022-10-24T12:48:57.779Z,99954.75
2022-10-24T12:51:37.128Z,99966.13
2022-10-24T12:54:12.643Z,99967.19
2022-10-24T12:56:51.461Z,99963.88
2022-10-24T12:59:45.152Z,99969.03
2022-10-24T13:02:11.591Z,99968.69
2022-10-24T13:05:06.055Z,99964.28
2022-10-24T13:07:38.132Z,99970.00
2022-10-24T13:10:18.917Z,99968.59
2022-10-24T13:13:14.930Z,99965.03
2022-10-24T13:15:47.832Z,99966.09
2022-10-24T13:18:45.232Z,99967.50
2022-10-24T13:21:31.191Z,99952.78
2022-10-24T13:24:15.939Z,99945.78
2022-10-24T13:26:45.043Z,99958.09
2022-10-24T13:29:36.065Z,99964.72
2022-10-24T13:32:05.155Z,99973.00
2022-10-24T13:34:53.478Z,99955.31
2022-10-24T13:37:28.033Z,99972.88
2022-10-24T13:40:00.865Z,99959.81
2022-10-24T13:42:36.296Z,99954.44
2022-10-24T13:45:44.246Z,99947.91
2022-10-24T13:48:18.991Z,99955.56
2022-10-24T13:51:17.184Z,99959.97
2022-10-24T13:53:50.020Z,99961.31
2022-10-24T13:56:17.066Z,99961.53
2022-10-24T13:58:44.896Z,99947.31
2022-10-24T14:01:19.788Z,99951.72
2022-10-24T14:03:47.742Z,99955.75
2022-10-24T14:06:14.515Z,99959.81
2022-10-24T14:08:59.713Z,99969.06
2022-10-24T14:11:32.085Z,99965.19
2022-10-24T14:14:05.658Z,99979.31
2022-10-24T14:16:34.746Z,99982.75
2022-10-24T14:19:27.257Z,99989.75
2022-10-24T14:21:57.668Z,99988.63
2022-10-24T14:24:24.003Z,99995.63
2022-10-24T14:26:53.517Z,100005.13
2022-10-24T14:29:24.781Z,100001.81
2022-10-24T14:31:58.743Z,100006.19
2022-10-24T14:34:25.665Z,99994.69
2022-10-24T14:36:53.235Z,100002.88
2022-10-24T14:39:23.809Z,100009.16
2022-10-24T14:41:52.414Z,100008.94
2022-10-24T14:44:23.892Z,100005.38
2022-10-24T14:47:06.004Z,100011.66
2022-10-24T14:49:36.647Z,100017.59
2022-10-24T14:52:11.729Z,100017.84
2022-10-24T14:54:39.265Z,100010.16
2022-10-24T14:57:15.646Z,100017.75
2022-10-24T14:59:45.402Z,100018.00
2022-10-24T15:02:28.833Z,100027.72
2022-10-24T15:05:20.006Z,100023.25
2022-10-24T15:08:09.090Z,100031.56
2022-10-24T15:10:35.342Z,100036.09
2022-10-24T15:13:10.366Z,100048.78
2022-10-24T15:16:00.581Z,100050.56
2022-10-24T15:18:29.832Z,100054.25
2022-10-24T15:21:07.268Z,100057.13
2022-10-24T15:23:36.563Z,100049.28
2022-10-24T15:26:03.001Z,100045.63
2022-10-24T15:28:49.355Z,100054.25
2022-10-24T15:31:18.873Z,100048.72
2022-10-24T15:33:45.819Z,100048.00
2022-10-24T15:36:30.745Z,100055.22
2022-10-24T15:39:00.591Z,100052.00
2022-10-24T15:41:27.699Z,100043.38
2022-10-24T15:43:54.887Z,100052.09
2022-10-24T15:46:22.093Z,100054.13
2022-10-24T15:48:48.582Z,100059.69
2022-10-24T15:51:20.863Z,100058.72
2022-10-24T15:53:49.190Z,100056.34
2022-10-24T15:56:16.254Z,100052.63
2022-10-24T15:58:42.953Z,100060.88
2022-10-24T16:01:22.687Z,100065.16
2022-10-24T16:03:49.260Z,100072.56
2022-10-24T16:06:15.627Z,100070.78
2022-10-24T16:08:41.963Z,100073.38
2022-10-24T16:11:11.330Z,100081.59
2022-10-24T16:13:37.755Z,100080.63
2022-10-24T16:16:04.311Z,100087.56
2022-10-24T16:18:30.667Z,100086.59
2022-10-24T16:21:00.518Z,100086.25
2022-10-24T16:23:27.501Z,100096.38
2022-10-24T16:25:54.240Z,100094.56
2022-10-24T16:28:23.570Z,100090.88
2022-10-24T16:30:50.369Z,100095.53
2022-10-24T16:33:17.847Z,100096.22
2022-10-24T16:35:44.223Z,100102.53
2022-10-24T16:38:11.648Z,100107.81
2022-10-24T16:43:09.694Z,100113.75
2022-10-24T16:45:36.234Z,100115.28
2022-10-24T16:48:02.920Z,100113.22
2022-10-24T16:50:30.478Z,100116.59
2022-10-24T16:53:01.618Z,100125.00
2022-10-24T16:55:29.710Z,100125.28
2022-10-24T16:57:56.832Z,100128.41
2022-10-24T17:00:24.308Z,100135.38
2022-10-24T17:02:53.156Z,100128.69
2022-10-24T17:05:22.279Z,100131.88
2022-10-24T17:07:49.008Z,100131.47
2022-10-24T17:10:18.384Z,100132.97
2022-10-24T17:12:47.507Z,100129.88
2022-10-24T17:15:16.816Z,100131.34
2022-10-24T17:17:46.347Z,100128.47
2022-10-24T17:20:13.122Z,100133.50
2022-10-24T17:22:42.176Z,100140.41
2022-10-24T17:25:17.607Z,100144.41
2022-10-24T17:27:44.284Z,100148.63
2022-10-24T17:30:20.873Z,100150.94
2022-10-24T17:32:47.642Z,100155.09
2022-10-24T17:35:16.554Z,100161.19
2022-10-24T17:37:54.787Z,100154.53
2022-10-24T17:40:24.690Z,100171.25
2022-10-24T17:42:51.404Z,100162.94
2022-10-24T17:45:21.971Z,100156.06
2022-10-24T17:47:48.733Z,100154.00
2022-10-24T17:50:17.078Z,100165.47
2022-10-24T17:52:43.767Z,100173.84
2022-10-24T17:58:10.980Z,100170.72
2022-10-24T18:00:37.536Z,100180.94
2022-10-24T18:03:04.207Z,100187.22
2022-10-24T18:05:30.742Z,100185.53
2022-10-24T18:07:58.013Z,100177.41
2022-10-24T18:10:24.827Z,100184.72
2022-10-24T18:12:51.409Z,100184.91
2022-10-24T18:15:21.494Z,100186.81
2022-10-24T18:17:48.798Z,100192.22
2022-10-24T18:20:15.900Z,100194.31
2022-10-24T18:22:44.022Z,100187.44
2022-10-24T18:25:13.531Z,100188.50
2022-10-24T18:27:41.066Z,100186.41
2022-10-24T18:30:09.112Z,100193.34
2022-10-24T18:32:35.800Z,100201.03
2022-10-24T18:35:02.170Z,100200.66
2022-10-24T18:37:28.710Z,100195.03
2022-10-24T18:39:55.480Z,100201.09
2022-10-24T18:42:30.239Z,100209.00
2022-10-24T18:44:57.194Z,100210.69
2022-10-24T18:47:25.731Z,100216.78
2022-10-24T18:49:52.755Z,100222.00
2022-10-24T18:52:40.949Z,100219.91
2022-10-24T18:55:22.060Z,100228.66
2022-10-24T18:57:50.017Z,100223.22
2022-10-24T19:00:22.149Z,100231.97
2022-10-24T19:03:11.860Z,100233.22
2022-10-24T19:05:52.022Z,100229.47
2022-10-24T19:08:23.627Z,100232.78
2022-10-24T19:10:56.037Z,100229.69
2022-10-24T19:13:24.346Z,100229.25
2022-10-24T19:15:57.783Z,100227.78
2022-10-24T19:18:25.404Z,100233.00
2022-10-24T19:20:51.766Z,100236.94
2022-10-24T19:23:18.309Z,100243.59
2022-10-24T19:25:45.202Z,100238.59
2022-10-24T19:28:16.111Z,100242.38
2022-10-24T19:30:44.589Z,100246.50
2022-10-24T19:33:13.117Z,100248.63
2022-10-24T19:35:46.571Z,100253.38
2022-10-24T19:38:18.949Z,100249.00
2022-10-24T19:40:47.414Z,100243.16
2022-10-24T19:43:14.020Z,100239.00
2022-10-24T19:45:49.891Z,100239.00
2022-10-24T19:48:17.603Z,100243.78
2022-10-24T19:50:44.181Z,100239.41
2022-10-24T19:53:13.076Z,100236.06
2022-10-24T19:55:40.170Z,100239.84
2022-10-24T19:58:14.419Z,100239.84
2022-10-24T20:00:41.346Z,100241.91
2022-10-24T20:03:08.043Z,100237.53
2022-10-24T20:05:36.126Z,100233.38
2022-10-24T20:08:02.609Z,100235.44
2022-10-24T20:10:28.971Z,100241.03
2022-10-24T20:12:55.430Z,100241.47
2022-10-24T20:15:21.778Z,100242.50
2022-10-24T20:17:48.111Z,100241.88
2022-10-24T20:20:14.627Z,100242.06
2022-10-24T20:22:41.887Z,100246.66
2022-10-24T20:25:08.296Z,100242.28
2022-10-24T20:27:38.689Z,100247.06
2022-10-24T20:30:05.681Z,100247.06
2022-10-24T20:32:32.081Z,100244.34
2022-10-24T20:34:58.447Z,100236.00
2022-10-24T20:37:24.800Z,100240.19
2022-10-24T20:39:51.139Z,100247.69
2022-10-24T20:42:18.570Z,100255.22
2022-10-24T20:44:44.925Z,100257.09
2022-10-24T20:47:11.255Z,100259.19
2022-10-24T20:49:37.644Z,100269.41
2022-10-24T20:52:04.163Z,100254.41
2022-10-24T20:54:30.576Z,100250.91
2022-10-24T20:56:56.952Z,100255.69
2022-10-24T20:59:23.335Z,100261.53
2022-10-24T21:01:49.814Z,100261.75
2022-10-24T21:04:19.912Z,100268.63
2022-10-24T21:06:47.383Z,100276.31
2022-10-24T21:09:14.949Z,100273.41
2022-10-24T21:11:41.289Z,100275.91
2022-10-24T21:14:11.976Z,100284.66
2022-10-24T21:16:38.309Z,100280.28
2022-10-24T21:19:04.972Z,100286.56
2022-10-24T21:21:31.517Z,100294.44
2022-10-24T21:24:03.878Z,100296.97
2022-10-24T21:26:34.003Z,100298.63
2022-10-24T21:29:08.888Z,100301.97
2022-10-24T21:31:48.184Z,100307.38
2022-10-24T21:34:14.593Z,100310.94
2022-10-24T21:36:40.907Z,100307.19
2022-10-24T21:39:07.247Z,100309.88
2022-10-24T21:41:33.713Z,100314.25
2022-10-24T21:44:00.055Z,100313.22
2022-10-24T21:46:29.188Z,100316.75
2022-10-24T21:48:56.723Z,100318.63
2022-10-24T21:51:34.843Z,100311.34
2022-10-24T21:54:04.783Z,100314.06
2022-10-24T21:56:33.506Z,100317.81
2022-10-24T22:01:32.891Z,100321.13
2022-10-24T22:04:00.119Z,100326.13
2022-10-24T22:06:27.631Z,100321.97
2022-10-24T22:08:54.838Z,100323.00
2022-10-24T22:11:23.700Z,100318.63
2022-10-24T22:13:51.287Z,100323.41
2022-10-24T22:16:20.607Z,100325.28
2022-10-24T22:18:47.279Z,100321.94
2022-10-24T22:21:29.240Z,100331.13
2022-10-24T22:23:57.187Z,100332.38
2022-10-24T22:26:24.956Z,100331.91
2022-10-24T22:28:52.140Z,100335.03
2022-10-24T22:31:18.906Z,100328.16
2022-10-24T22:33:45.359Z,100335.66
2022-10-24T22:36:24.391Z,100328.56
2022-10-24T22:38:54.457Z,100340.22
2022-10-24T22:41:21.973Z,100345.88
2022-10-24T22:43:48.909Z,100336.69
2022-10-24T22:46:37.010Z,100349.00
2022-10-24T22:49:28.892Z,100349.41
2022-10-24T22:51:55.525Z,100354.81
2022-10-24T22:54:24.163Z,100348.16
2022-10-24T22:56:51.043Z,100346.31
2022-10-24T22:59:17.704Z,100356.72
2022-10-24T23:01:52.905Z,100360.91
2022-10-24T23:04:34.413Z,100365.06
2022-10-24T23:07:31.624Z,100364.03
2022-10-24T23:09:58.011Z,100366.72
2022-10-24T23:12:24.731Z,100369.44
2022-10-24T23:14:52.119Z,100383.63
2022-10-24T23:17:27.555Z,100381.56
2022-10-24T23:19:55.461Z,100391.53
2022-10-24T23:22:24.038Z,100385.09
2022-10-24T23:24:52.363Z,100385.09
2022-10-24T23:27:34.225Z,100385.91
2022-10-24T23:30:08.073Z,100393.22
2022-10-24T23:32:37.907Z,100400.28
2022-10-24T23:35:04.798Z,100402.34
2022-10-24T23:37:33.014Z,100403.22
2022-10-24T23:40:21.203Z,100403.22
2022-10-24T23:42:49.561Z,100403.22
2022-10-24T23:45:19.244Z,100405.28
2022-10-24T23:48:18.457Z,100411.13
2022-10-24T23:51:20.281Z,100406.06
2022-10-24T23:53:51.395Z,100411.28
2022-10-24T23:56:19.697Z,100406.47
2022-10-24T23:58:46.087Z,100409.38
